createdAt,value
2017-04-21T00:00:01.393Z,48.44
2017-04-21T00:00:42.073Z,48.44
2017-04-21T00:01:22.678Z,48.35
2017-04-21T00:02:03.284Z,48.16
2017-04-21T00:02:43.934Z,48.54
2017-04-21T00:03:24.649Z,48.06
2017-04-21T00:04:05.328Z,48.54
2017-04-21T00:04:45.950Z,48.16
2017-04-21T00:05:26.635Z,47.58
2017-04-21T00:06:07.283Z,47.87
2017-04-21T00:06:47.900Z,47.97
2017-04-21T00:07:28.520Z,47.68
2017-04-21T00:08:09.146Z,47.87
2017-04-21T00:08:49.755Z,47.77
2017-04-21T00:09:30.372Z,47.68
2017-04-21T00:10:11.005Z,47.97
2017-04-21T00:10:51.600Z,47.77
2017-04-21T00:11:32.219Z,47.68
2017-04-21T00:12:12.871Z,47.58
2017-04-21T00:12:53.514Z,47.68
2017-04-21T00:13:34.179Z,47.77
2017-04-21T00:14:14.778Z,47.87
2017-04-21T00:14:55.751Z,47.87
2017-04-21T00:15:36.370Z,48.25
2017-04-21T00:16:17.014Z,48.44
2017-04-21T00:16:57.669Z,47.87
2017-04-21T00:17:38.275Z,47.77
2017-04-21T00:18:21.675Z,47.58
2017-04-21T00:19:02.304Z,47.58
2017-04-21T00:19:42.985Z,47.68
2017-04-21T00:20:23.602Z,47.77
2017-04-21T00:21:04.219Z,47.87
2017-04-21T00:21:44.840Z,47.11
2017-04-21T00:22:25.515Z,47.77
2017-04-21T00:23:06.181Z,47.58
2017-04-21T00:23:46.818Z,47.58
2017-04-21T00:24:27.442Z,47.58
2017-04-21T00:25:08.124Z,47.58
2017-04-21T00:25:48.753Z,47.2
2017-04-21T00:26:29.364Z,47.11
2017-04-21T00:27:09.976Z,47.11
2017-04-21T00:27:50.588Z,47.02
2017-04-21T00:28:31.190Z,47.77
2017-04-21T00:29:11.804Z,47.68
2017-04-21T00:29:52.430Z,47.58
2017-04-21T00:30:33.060Z,47.68
2017-04-21T00:31:13.706Z,47.77
2017-04-21T00:31:54.321Z,47.87
2017-04-21T00:32:34.973Z,47.49
2017-04-21T00:33:15.822Z,47.58
2017-04-21T00:33:56.442Z,47.39
2017-04-21T00:34:37.096Z,47.68
2017-04-21T00:35:17.750Z,47.58
2017-04-21T00:35:58.404Z,47.68
2017-04-21T00:36:39.024Z,47.58
2017-04-21T00:37:19.634Z,47.68
2017-04-21T00:38:00.285Z,47.87
2017-04-21T00:38:40.913Z,47.77
2017-04-21T00:39:21.523Z,47.97
2017-04-21T00:40:02.183Z,47.49
2017-04-21T00:40:42.808Z,47.87
2017-04-21T00:41:23.425Z,47.77
2017-04-21T00:42:04.038Z,47.77
2017-04-21T00:42:44.639Z,47.77
2017-04-21T00:43:25.241Z,47.87
2017-04-21T00:44:05.854Z,47.58
2017-04-21T00:44:46.522Z,47.87
2017-04-21T00:45:27.193Z,47.49
2017-04-21T00:46:07.949Z,47.68
2017-04-21T00:46:48.595Z,47.58
2017-04-21T00:47:29.214Z,47.77
2017-04-21T00:48:09.864Z,47.87
2017-04-21T00:48:50.475Z,47.87
2017-04-21T00:49:31.133Z,47.49
2017-04-21T00:50:11.754Z,47.49
2017-04-21T00:50:52.372Z,47.49
2017-04-21T00:51:33.021Z,47.11
2017-04-21T00:52:13.639Z,46.83
2017-04-21T00:52:54.256Z,47.09
2017-04-21T00:53:34.922Z,46.73
2017-04-21T00:54:15.550Z,47.18
2017-04-21T00:54:56.241Z,47.49
2017-04-21T00:55:36.847Z,47.68
2017-04-21T00:56:17.478Z,47.58
2017-04-21T00:56:58.115Z,47.68
2017-04-21T00:57:38.742Z,47.66
2017-04-21T00:58:19.357Z,47.58
2017-04-21T00:59:00.009Z,47.68
2017-04-21T00:59:40.667Z,47.66
2017-04-21T01:00:21.313Z,47.37
2017-04-21T01:01:01.926Z,47.47
2017-04-21T01:01:42.529Z,47.87
2017-04-21T01:02:23.182Z,46.9
2017-04-21T01:03:03.776Z,47.2
2017-04-21T01:03:44.374Z,47.2
2017-04-21T01:04:25.002Z,47.68
2017-04-21T01:05:05.596Z,47.47
2017-04-21T01:05:46.205Z,47.56
2017-04-21T01:06:26.842Z,47.49
2017-04-21T01:07:07.452Z,47.68
2017-04-21T01:07:48.066Z,47.68
2017-04-21T01:08:28.678Z,47.77
2017-04-21T01:09:09.307Z,47.47
2017-04-21T01:09:49.948Z,47.37
2017-04-21T01:10:30.590Z,46.99
2017-04-21T01:11:11.200Z,46.8
2017-04-21T01:11:51.818Z,47.09
2017-04-21T01:12:32.463Z,47.37
2017-04-21T01:13:13.130Z,47.68
2017-04-21T01:13:53.715Z,47.68
2017-04-21T01:14:34.326Z,47.37
2017-04-21T01:15:14.979Z,47.66
2017-04-21T01:15:55.606Z,47.56
2017-04-21T01:16:36.212Z,47.66
2017-04-21T01:17:16.858Z,47.37
2017-04-21T01:17:57.492Z,46.8
2017-04-21T01:18:38.098Z,46.99
2017-04-21T01:19:18.714Z,46.9
2017-04-21T01:19:59.325Z,47.18
2017-04-21T01:20:39.940Z,47.09
2017-04-21T01:21:20.547Z,47.09
2017-04-21T01:22:01.162Z,47.09
2017-04-21T01:22:41.767Z,47.09
2017-04-21T01:23:22.402Z,46.7
2017-04-21T01:24:03.017Z,46.99
2017-04-21T01:24:43.626Z,47.18
2017-04-21T01:25:24.266Z,47.56
2017-04-21T01:26:04.892Z,47.28
2017-04-21T01:26:45.490Z,46.9
2017-04-21T01:27:26.109Z,47.09
2017-04-21T01:28:06.690Z,46.99
2017-04-21T01:28:47.345Z,47.18
2017-04-21T01:29:27.926Z,47.09
2017-04-21T01:30:08.539Z,46.9
2017-04-21T01:30:49.149Z,47.18
2017-04-21T01:31:29.787Z,47.56
2017-04-21T01:32:10.417Z,47.37
2017-04-21T01:32:51.036Z,47.56
2017-04-21T01:33:31.684Z,47.75
2017-04-21T01:34:12.295Z,47.47
2017-04-21T01:34:52.906Z,46.8
2017-04-21T01:35:33.527Z,47.09
2017-04-21T01:36:14.175Z,47.09
2017-04-21T01:36:54.810Z,47.18
2017-04-21T01:37:35.422Z,47.09
2017-04-21T01:38:16.055Z,47.18
2017-04-21T01:38:56.668Z,47.18
2017-04-21T01:39:37.279Z,47.37
2017-04-21T01:40:17.905Z,47.56
2017-04-21T01:40:58.520Z,47.56
2017-04-21T01:41:39.121Z,47.56
2017-04-21T01:42:19.731Z,47.56
2017-04-21T01:43:00.338Z,47.56
2017-04-21T01:43:40.975Z,47.66
2017-04-21T01:44:21.597Z,47.66
2017-04-21T01:45:02.231Z,47.56
2017-04-21T01:45:42.841Z,47.18
2017-04-21T01:46:23.460Z,47.28
2017-04-21T01:47:04.065Z,47.56
2017-04-21T01:47:44.686Z,47.47
2017-04-21T01:48:25.287Z,47.47
2017-04-21T01:49:05.906Z,47.47
2017-04-21T01:49:46.532Z,47.56
2017-04-21T01:50:27.162Z,47.66
2017-04-21T01:51:07.797Z,47.56
2017-04-21T01:51:48.414Z,47.56
2017-04-21T01:52:29.020Z,47.47
2017-04-21T01:53:09.632Z,47.66
2017-04-21T01:53:50.263Z,47.66
2017-04-21T01:54:30.918Z,47.66
2017-04-21T01:55:11.532Z,47.47
2017-04-21T01:55:52.141Z,47.56
2017-04-21T01:56:32.753Z,47.75
2017-04-21T01:57:13.365Z,47.66
2017-04-21T01:57:53.997Z,47.85
2017-04-21T01:58:34.612Z,47.66
2017-04-21T01:59:15.262Z,47.75
2017-04-21T01:59:55.953Z,47.94
2017-04-21T02:00:36.591Z,48.03
2017-04-21T02:01:17.211Z,47.75
2017-04-21T02:01:57.810Z,47.94
2017-04-21T02:02:38.425Z,47.66
2017-04-21T02:03:19.115Z,47.56
2017-04-21T02:03:59.716Z,47.37
2017-04-21T02:04:40.354Z,47.47
2017-04-21T02:05:21.030Z,47.47
2017-04-21T02:06:01.674Z,47.85
2017-04-21T02:06:42.304Z,47.47
2017-04-21T02:07:22.943Z,47.47
2017-04-21T02:08:03.546Z,47.85
2017-04-21T02:08:44.152Z,47.66
2017-04-21T02:09:24.749Z,47.66
2017-04-21T02:10:05.399Z,47.75
2017-04-21T02:10:46.024Z,47.85
2017-04-21T02:11:26.633Z,47.75
2017-04-21T02:12:07.248Z,48.03
2017-04-21T02:12:47.849Z,48.51
2017-04-21T02:13:28.483Z,48.61
2017-04-21T02:14:09.099Z,48.61
2017-04-21T02:14:49.702Z,48.22
2017-04-21T02:15:30.325Z,48.22
2017-04-21T02:16:10.957Z,48.22
2017-04-21T02:16:51.558Z,48.41
2017-04-21T02:17:32.172Z,48.32
2017-04-21T02:18:12.814Z,48.7
2017-04-21T02:18:53.431Z,48.99
2017-04-21T02:19:34.053Z,48.7
2017-04-21T02:20:14.674Z,48.7
2017-04-21T02:20:55.291Z,48.03
2017-04-21T02:21:35.904Z,48.51
2017-04-21T02:22:16.515Z,48.61
2017-04-21T02:22:57.116Z,48.51
2017-04-21T02:23:37.719Z,48.41
2017-04-21T02:24:18.332Z,48.7
2017-04-21T02:24:59.004Z,48.7
2017-04-21T02:25:39.617Z,48.7
2017-04-21T02:26:20.234Z,48.8
2017-04-21T02:27:00.829Z,48.99
2017-04-21T02:27:41.438Z,48.99
2017-04-21T02:28:22.067Z,48.99
2017-04-21T02:29:02.683Z,48.99
2017-04-21T02:29:43.278Z,49.18
2017-04-21T02:30:23.884Z,48.7
2017-04-21T02:31:04.505Z,48.89
2017-04-21T02:31:45.145Z,48.89
2017-04-21T02:32:25.742Z,48.99
2017-04-21T02:33:06.358Z,48.99
2017-04-21T02:33:46.959Z,48.89
2017-04-21T02:34:27.616Z,48.99
2017-04-21T02:35:08.277Z,49.08
2017-04-21T02:35:48.872Z,48.99
2017-04-21T02:36:29.463Z,49.18
2017-04-21T02:37:10.104Z,49.08
2017-04-21T02:37:50.758Z,48.99
2017-04-21T02:38:31.386Z,48.89
2017-04-21T02:39:12.005Z,49.08
2017-04-21T02:39:52.692Z,48.99
2017-04-21T02:40:33.281Z,49.37
2017-04-21T02:41:13.912Z,49.37
2017-04-21T02:41:54.555Z,49.46
2017-04-21T02:42:35.166Z,49.55
2017-04-21T02:43:15.781Z,49.84
2017-04-21T02:43:56.415Z,49.74
2017-04-21T02:44:37.024Z,49.84
2017-04-21T02:45:17.645Z,49.46
2017-04-21T02:45:58.263Z,49.65
2017-04-21T02:46:38.884Z,49.55
2017-04-21T02:47:19.544Z,49.27
2017-04-21T02:48:00.156Z,49.65
2017-04-21T02:48:40.762Z,49.46
2017-04-21T02:49:21.376Z,49.55
2017-04-21T02:50:02.036Z,49.74
2017-04-21T02:50:42.615Z,49.84
2017-04-21T02:51:23.250Z,49.74
2017-04-21T02:52:03.911Z,49.55
2017-04-21T02:52:44.570Z,50.03
2017-04-21T02:53:25.170Z,49.84
2017-04-21T02:54:05.847Z,49.84
2017-04-21T02:54:46.476Z,49.74
2017-04-21T02:55:27.132Z,49.93
2017-04-21T02:56:07.839Z,49.93
2017-04-21T02:56:48.467Z,49.84
2017-04-21T02:57:29.132Z,49.65
2017-04-21T02:58:09.747Z,49.84
2017-04-21T02:58:50.381Z,49.84
2017-04-21T02:59:30.983Z,49.93
2017-04-21T03:00:11.590Z,49.84
2017-04-21T03:00:52.195Z,49.84
2017-04-21T03:01:32.821Z,49.93
2017-04-21T03:02:13.455Z,49.84
2017-04-21T03:02:54.141Z,49.84
2017-04-21T03:03:34.754Z,49.74
2017-04-21T03:04:15.393Z,50.12
2017-04-21T03:04:56.027Z,49.93
2017-04-21T03:05:36.672Z,49.84
2017-04-21T03:06:17.266Z,49.84
2017-04-21T03:06:57.880Z,49.65
2017-04-21T03:07:38.494Z,49.84
2017-04-21T03:08:19.122Z,49.93
2017-04-21T03:08:59.727Z,49.93
2017-04-21T03:09:40.327Z,49.93
2017-04-21T03:10:20.888Z,49.65
2017-04-21T03:11:01.464Z,49.84
2017-04-21T03:11:42.052Z,49.74
2017-04-21T03:12:22.634Z,49.93
2017-04-21T03:13:03.220Z,50.03
2017-04-21T03:13:43.849Z,50.22
2017-04-21T03:14:24.451Z,50.22
2017-04-21T03:15:05.057Z,50.31
2017-04-21T03:15:45.681Z,50.7
2017-04-21T03:16:26.291Z,50.22
2017-04-21T03:17:06.920Z,50.22
2017-04-21T03:17:47.497Z,50.03
2017-04-21T03:18:28.054Z,50.12
2017-04-21T03:19:08.647Z,50.6
2017-04-21T03:19:49.247Z,50.6
2017-04-21T03:20:29.848Z,50.51
2017-04-21T03:21:10.428Z,50.51
2017-04-21T03:21:51.019Z,50.51
2017-04-21T03:22:31.610Z,50.98
2017-04-21T03:23:12.216Z,50.89
2017-04-21T03:23:52.798Z,51.07
2017-04-21T03:24:33.413Z,50.41
2017-04-21T03:25:13.973Z,50.6
2017-04-21T03:25:54.551Z,50.79
2017-04-21T03:26:35.136Z,50.6
2017-04-21T03:27:15.715Z,50.7
2017-04-21T03:27:56.305Z,50.79
2017-04-21T03:28:36.927Z,50.51
2017-04-21T03:29:17.532Z,50.51
2017-04-21T03:29:58.120Z,50.51
2017-04-21T03:30:38.791Z,50.79
2017-04-21T03:31:19.451Z,50.51
2017-04-21T03:32:00.047Z,50.6
2017-04-21T03:32:40.635Z,50.98
2017-04-21T03:33:21.210Z,51.07
2017-04-21T03:34:01.806Z,50.7
2017-04-21T03:34:42.391Z,50.79
2017-04-21T03:35:22.977Z,50.79
2017-04-21T03:36:03.561Z,50.98
2017-04-21T03:36:44.129Z,50.89
2017-04-21T03:37:24.723Z,50.89
2017-04-21T03:38:05.334Z,50.98
2017-04-21T03:38:45.896Z,51.36
2017-04-21T03:39:26.492Z,50.89
2017-04-21T03:40:07.069Z,50.6
2017-04-21T03:40:47.686Z,50.79
2017-04-21T03:41:28.297Z,50.98
2017-04-21T03:42:08.877Z,50.6
2017-04-21T03:42:49.461Z,50.51
2017-04-21T03:43:30.057Z,50.89
2017-04-21T03:44:10.641Z,50.79
2017-04-21T03:44:51.252Z,50.6
2017-04-21T03:45:31.825Z,51.07
2017-04-21T03:46:12.412Z,51.07
2017-04-21T03:46:53.024Z,50.79
2017-04-21T03:47:33.685Z,50.98
2017-04-21T03:48:15.987Z,50.79
2017-04-21T03:48:56.660Z,50.79
2017-04-21T03:49:37.255Z,50.98
2017-04-21T03:50:17.926Z,50.98
2017-04-21T03:50:58.530Z,50.51
2017-04-21T03:51:39.128Z,50.98
2017-04-21T03:52:19.753Z,50.98
2017-04-21T03:53:00.368Z,50.98
2017-04-21T03:53:40.922Z,50.6
2017-04-21T03:54:21.518Z,50.98
2017-04-21T03:55:02.151Z,51.07
2017-04-21T03:55:42.740Z,50.51
2017-04-21T03:56:23.341Z,50.51
2017-04-21T03:57:03.936Z,50.79
2017-04-21T03:57:44.515Z,50.89
2017-04-21T03:58:25.088Z,50.89
2017-04-21T03:59:05.724Z,50.98
2017-04-21T03:59:46.451Z,50.98
2017-04-21T04:00:27.025Z,50.89
2017-04-21T04:01:07.607Z,50.51
2017-04-21T04:01:48.195Z,50.51
2017-04-21T04:02:28.769Z,50.89
2017-04-21T04:03:09.366Z,51.07
2017-04-21T04:03:49.947Z,50.98
2017-04-21T04:04:30.544Z,50.6
2017-04-21T04:05:11.124Z,51.07
2017-04-21T04:05:51.710Z,50.98
2017-04-21T04:06:32.281Z,50.98
2017-04-21T04:08:46.275Z,50.6
2017-04-21T04:09:26.855Z,50.89
2017-04-21T04:10:07.441Z,50.89
2017-04-21T04:10:48.007Z,50.89
2017-04-21T04:11:28.602Z,50.89
2017-04-21T04:12:09.167Z,50.79
2017-04-21T04:12:49.785Z,50.89
2017-04-21T04:13:30.382Z,50.79
2017-04-21T04:14:10.965Z,50.98
2017-04-21T04:14:51.550Z,51.07
2017-04-21T04:15:32.152Z,50.98
2017-04-21T04:16:12.757Z,50.79
2017-04-21T04:16:53.355Z,50.6
2017-04-21T04:17:33.934Z,50.89
2017-04-21T04:18:14.512Z,50.79
2017-04-21T04:18:55.103Z,50.7
2017-04-21T04:19:35.800Z,51.07
2017-04-21T04:20:16.418Z,51.07
2017-04-21T04:20:57.006Z,51.07
2017-04-21T04:21:37.606Z,50.89
2017-04-21T04:22:18.215Z,50.79
2017-04-21T04:22:58.815Z,50.89
2017-04-21T04:23:39.406Z,50.79
2017-04-21T04:24:20.008Z,50.79
2017-04-21T04:25:00.708Z,50.79
2017-04-21T04:25:41.299Z,50.89
2017-04-21T04:26:21.867Z,50.89
2017-04-21T04:27:02.432Z,50.89
2017-04-21T04:27:43.024Z,50.89
2017-04-21T04:28:23.608Z,50.89
2017-04-21T04:29:04.203Z,50.98
2017-04-21T04:29:44.788Z,50.89
2017-04-21T04:30:25.401Z,50.7
2017-04-21T04:31:06.000Z,50.6
2017-04-21T04:31:46.572Z,50.89
2017-04-21T04:32:27.182Z,51.07
2017-04-21T04:33:07.718Z,50.79
2017-04-21T04:33:48.312Z,50.98
2017-04-21T04:34:28.888Z,50.79
2017-04-21T04:35:09.487Z,50.98
2017-04-21T04:35:50.065Z,50.7
2017-04-21T04:36:30.679Z,50.79
2017-04-21T04:37:11.328Z,50.89
2017-04-21T04:37:51.915Z,50.98
2017-04-21T04:38:32.519Z,50.89
2017-04-21T04:39:13.157Z,50.89
2017-04-21T04:39:53.787Z,50.89
2017-04-21T04:40:34.483Z,50.7
2017-04-21T04:41:15.077Z,50.79
2017-04-21T04:41:55.680Z,50.98
2017-04-21T04:42:37.726Z,50.98
2017-04-21T04:43:18.370Z,50.79
2017-04-21T04:43:58.983Z,50.89
2017-04-21T04:44:39.630Z,50.6
2017-04-21T04:45:20.343Z,50.79
2017-04-21T04:46:00.928Z,51.07
2017-04-21T04:46:41.532Z,50.89
2017-04-21T04:47:22.160Z,51.45
2017-04-21T04:48:02.871Z,51.45
2017-04-21T04:48:43.470Z,51.36
2017-04-21T04:49:24.099Z,51.55
2017-04-21T04:50:04.712Z,50.98
2017-04-21T04:50:45.409Z,50.89
2017-04-21T04:51:26.031Z,51.07
2017-04-21T04:52:06.657Z,50.79
2017-04-21T04:52:47.232Z,50.79
2017-04-21T04:53:27.862Z,50.6
2017-04-21T04:54:08.542Z,51.07
2017-04-21T04:54:49.141Z,51.45
2017-04-21T04:55:29.785Z,51.45
2017-04-21T04:56:10.395Z,51.17
2017-04-21T04:56:51.033Z,51.55
2017-04-21T04:57:31.626Z,51.55
2017-04-21T04:58:12.200Z,50.98
2017-04-21T04:58:52.829Z,50.79
2017-04-21T04:59:33.414Z,50.79
2017-04-21T05:00:14.004Z,50.98
2017-04-21T05:00:54.616Z,51.26
2017-04-21T05:01:35.202Z,51.36
2017-04-21T05:02:15.776Z,51.36
2017-04-21T05:02:56.404Z,51.55
2017-04-21T05:03:36.981Z,51.07
2017-04-21T05:04:17.571Z,50.89
2017-04-21T05:04:58.149Z,50.98
2017-04-21T05:05:38.729Z,50.79
2017-04-21T05:06:19.336Z,51.55
2017-04-21T05:06:59.952Z,51.26
2017-04-21T05:07:40.531Z,51.55
2017-04-21T05:08:21.118Z,51.45
2017-04-21T05:09:01.708Z,51.74
2017-04-21T05:09:42.293Z,50.98
2017-04-21T05:10:22.914Z,51.45
2017-04-21T05:11:03.500Z,51.26
2017-04-21T05:11:44.101Z,51.36
2017-04-21T05:12:24.698Z,51.36
2017-04-21T05:13:05.296Z,51.45
2017-04-21T05:13:45.895Z,51.36
2017-04-21T05:14:26.479Z,51.26
2017-04-21T05:15:07.143Z,51.67
2017-04-21T05:15:47.714Z,52.02
2017-04-21T05:16:28.298Z,51.57
2017-04-21T05:17:08.919Z,51.29
2017-04-21T05:17:49.520Z,51.57
2017-04-21T05:18:30.138Z,51.45
2017-04-21T05:19:10.697Z,51.57
2017-04-21T05:19:51.279Z,51.48
2017-04-21T05:20:31.869Z,51.48
2017-04-21T05:21:12.469Z,51.48
2017-04-21T05:21:53.071Z,51.48
2017-04-21T05:22:33.704Z,51.29
2017-04-21T05:23:14.283Z,51.39
2017-04-21T05:23:54.966Z,51.01
2017-04-21T05:24:35.525Z,50.62
2017-04-21T05:25:16.103Z,50.72
2017-04-21T05:25:56.733Z,50.81
2017-04-21T05:26:37.344Z,51.1
2017-04-21T05:27:18.001Z,51.1
2017-04-21T05:27:58.594Z,51.1
2017-04-21T05:28:39.168Z,50.62
2017-04-21T05:29:19.747Z,50.62
2017-04-21T05:30:07.233Z,50.81
2017-04-21T05:30:47.791Z,51.01
2017-04-21T05:31:28.406Z,51.39
2017-04-21T05:32:09.051Z,51.39
2017-04-21T05:32:49.691Z,51.39
2017-04-21T05:33:30.281Z,51.1
2017-04-21T05:34:10.875Z,51.48
2017-04-21T05:34:51.453Z,51.48
2017-04-21T05:35:32.030Z,51.29
2017-04-21T05:36:12.633Z,51.76
2017-04-21T05:36:53.227Z,55.85
2017-04-21T05:37:33.819Z,60.22
2017-04-21T05:38:14.412Z,64.4
2017-04-21T05:38:55.074Z,62.72
2017-04-21T05:39:35.660Z,61.96
2017-04-21T05:40:16.275Z,59.3
2017-04-21T05:40:56.877Z,58.85
2017-04-21T05:41:37.456Z,57.52
2017-04-21T05:42:18.026Z,57.9
2017-04-21T05:42:58.620Z,57.71
2017-04-21T05:43:39.192Z,58.4
2017-04-21T05:44:19.756Z,55.93
2017-04-21T05:45:00.348Z,54.03
2017-04-21T05:45:40.966Z,54.79
2017-04-21T05:46:21.562Z,55.36
2017-04-21T05:47:02.230Z,54.15
2017-04-21T05:47:42.803Z,51.68
2017-04-21T05:48:23.392Z,50.15
2017-04-21T05:49:03.968Z,49.11
2017-04-21T05:49:44.601Z,49.4
2017-04-21T05:50:25.294Z,50.92
2017-04-21T05:51:05.853Z,49.87
2017-04-21T05:51:46.455Z,51.01
2017-04-21T05:52:27.052Z,50.46
2017-04-21T05:53:07.698Z,49.23
2017-04-21T05:53:48.276Z,48.66
2017-04-21T05:54:28.958Z,47.99
2017-04-21T05:55:09.606Z,48.37
2017-04-21T05:55:50.135Z,49.04
2017-04-21T05:56:30.734Z,49.04
2017-04-21T05:57:11.328Z,48.75
2017-04-21T05:57:51.910Z,48.27
2017-04-21T05:58:32.508Z,48.56
2017-04-21T05:59:13.101Z,47.34
2017-04-21T05:59:53.713Z,46.68
2017-04-21T06:00:34.306Z,47.06
2017-04-21T06:01:14.898Z,48.78
2017-04-21T06:01:55.482Z,48.68
2017-04-21T06:02:36.502Z,46.87
2017-04-21T06:03:18.231Z,47.63
2017-04-21T06:03:59.987Z,47.54
2017-04-21T06:04:41.578Z,46.58
2017-04-21T06:05:23.320Z,46.11
2017-04-21T06:06:04.946Z,46.3
2017-04-21T06:06:45.910Z,46.11
2017-04-21T06:07:26.641Z,46.49
2017-04-21T06:08:07.215Z,45.83
2017-04-21T06:08:47.801Z,46.2
2017-04-21T06:09:28.422Z,46.39
2017-04-21T06:10:09.058Z,46.2
2017-04-21T06:10:49.644Z,46.39
2017-04-21T06:11:30.711Z,46.04
2017-04-21T06:12:11.991Z,45.56
2017-04-21T06:12:53.177Z,46.42
2017-04-21T06:13:34.069Z,45.75
2017-04-21T06:14:15.328Z,46.13
2017-04-21T06:14:56.949Z,45.28
2017-04-21T06:15:38.648Z,43.46
2017-04-21T06:16:20.441Z,42.89
2017-04-21T06:17:01.890Z,42.7
2017-04-21T06:17:43.510Z,45.08
2017-04-21T06:18:24.591Z,45.47
2017-04-21T06:19:05.575Z,45.28
2017-04-21T06:19:46.593Z,43.65
2017-04-21T06:20:27.644Z,42.03
2017-04-21T06:21:08.978Z,41.44
2017-04-21T06:21:50.138Z,42.01
2017-04-21T06:22:31.601Z,41.72
2017-04-21T06:23:12.704Z,41.82
2017-04-21T06:23:53.325Z,42.47
2017-04-21T06:24:33.942Z,42.94
2017-04-21T06:25:14.524Z,43.42
2017-04-21T06:25:55.120Z,43.61
2017-04-21T06:26:35.757Z,43.97
2017-04-21T06:27:16.409Z,44.26
2017-04-21T06:27:57.018Z,44.64
2017-04-21T06:28:37.591Z,45.21
2017-04-21T06:29:18.179Z,45.59
2017-04-21T06:29:58.765Z,46.06
2017-04-21T06:30:39.383Z,46.44
2017-04-21T06:31:20.138Z,46.51
2017-04-21T06:32:00.746Z,46.7
2017-04-21T06:32:41.400Z,47.09
2017-04-21T06:33:21.987Z,47.28
2017-04-21T06:34:02.686Z,46.99
2017-04-21T06:34:43.284Z,47.66
2017-04-21T06:35:24.047Z,47.75
2017-04-21T06:36:04.639Z,47.66
2017-04-21T06:36:45.460Z,47.75
2017-04-21T06:37:26.010Z,48.71
2017-04-21T06:38:06.619Z,48.49
2017-04-21T06:38:47.247Z,48.8
2017-04-21T06:39:28.003Z,49.06
2017-04-21T06:40:08.643Z,49.65
2017-04-21T06:40:49.290Z,49.65
2017-04-21T06:41:29.906Z,49.56
2017-04-21T06:42:10.480Z,49.44
2017-04-21T06:42:51.273Z,49.37
2017-04-21T06:43:31.887Z,49.82
2017-04-21T06:44:12.446Z,49.91
2017-04-21T06:44:53.047Z,50.04
2017-04-21T06:45:33.638Z,50.1
2017-04-21T06:46:14.245Z,50.13
2017-04-21T06:46:54.844Z,50.01
2017-04-21T06:47:35.529Z,50.42
2017-04-21T06:48:16.121Z,50.13
2017-04-21T06:48:56.825Z,50.51
2017-04-21T06:49:37.421Z,50.87
2017-04-21T06:50:18.017Z,50.79
2017-04-21T06:50:58.676Z,51.18
2017-04-21T06:51:39.264Z,50.89
2017-04-21T06:52:19.879Z,51.56
2017-04-21T06:53:00.502Z,52.1
2017-04-21T06:53:41.104Z,51.93
2017-04-21T06:54:21.822Z,51.65
2017-04-21T06:55:02.432Z,51.84
2017-04-21T06:55:43.269Z,51.93
2017-04-21T06:56:23.977Z,52.13
2017-04-21T06:57:04.582Z,51.75
2017-04-21T06:57:45.184Z,51.75
2017-04-21T06:58:25.794Z,52.03
2017-04-21T06:59:06.447Z,51.93
2017-04-21T06:59:47.089Z,52.41
2017-04-21T07:00:27.691Z,52.41
2017-04-21T07:01:08.278Z,52.51
2017-04-21T07:01:48.888Z,52.61
2017-04-21T07:02:29.501Z,52.7
2017-04-21T07:03:10.108Z,52.7
2017-04-21T07:03:50.689Z,52.89
2017-04-21T07:04:31.295Z,52.8
2017-04-21T07:05:11.882Z,52.8
2017-04-21T07:05:52.448Z,53.08
2017-04-21T07:06:33.091Z,53.36
2017-04-21T07:07:13.652Z,53.27
2017-04-21T07:07:54.257Z,52.8
2017-04-21T07:08:34.844Z,53.27
2017-04-21T07:09:15.411Z,53.36
2017-04-21T07:09:56.010Z,53.08
2017-04-21T07:10:36.587Z,53.17
2017-04-21T07:11:17.181Z,53.36
2017-04-21T07:11:57.800Z,53.08
2017-04-21T07:12:38.365Z,53.08
2017-04-21T07:13:18.986Z,52.89
2017-04-21T07:13:59.613Z,52.89
2017-04-21T07:14:40.187Z,52.98
2017-04-21T07:15:20.785Z,53.46
2017-04-21T07:16:01.355Z,53.27
2017-04-21T07:16:41.946Z,53.55
2017-04-21T07:17:22.512Z,53.65
2017-04-21T07:18:03.089Z,53.84
2017-04-21T07:18:44.170Z,53.55
2017-04-21T07:19:24.752Z,53.84
2017-04-21T07:20:05.329Z,54.13
2017-04-21T07:20:46.062Z,54.32
2017-04-21T07:21:26.784Z,54.03
2017-04-21T07:22:07.352Z,54.5
2017-04-21T07:22:48.002Z,54.5
2017-04-21T07:23:28.614Z,54.22
2017-04-21T07:24:09.183Z,54.5
2017-04-21T07:24:49.786Z,54.69
2017-04-21T07:25:30.376Z,54.13
2017-04-21T07:26:10.977Z,54.22
2017-04-21T07:26:51.684Z,54.13
2017-04-21T07:27:32.290Z,54.13
2017-04-21T07:28:12.881Z,54.13
2017-04-21T07:28:53.491Z,54.6
2017-04-21T07:29:34.093Z,55.17
2017-04-21T07:30:14.676Z,54.89
2017-04-21T07:30:55.638Z,54.69
2017-04-21T07:31:36.294Z,54.89
2017-04-21T07:32:17.187Z,54.98
2017-04-21T07:32:57.771Z,55.01
2017-04-21T07:33:38.593Z,54.91
2017-04-21T07:34:19.626Z,54.72
2017-04-21T07:35:00.803Z,54.82
2017-04-21T07:36:22.093Z,54.72
2017-04-21T07:37:03.028Z,54.72
2017-04-21T07:37:44.443Z,54.82
2017-04-21T07:38:25.043Z,54.91
2017-04-21T07:39:05.632Z,55.2
2017-04-21T07:40:27.063Z,55.49
2017-04-21T07:41:07.806Z,55.68
2017-04-21T07:41:48.392Z,55.29
2017-04-21T07:42:28.991Z,55.87
2017-04-21T07:43:09.630Z,56.05
2017-04-21T07:43:50.204Z,56.15
2017-04-21T07:44:30.800Z,56.05
2017-04-21T07:45:11.466Z,56.05
2017-04-21T07:45:52.152Z,56.15
2017-04-21T07:46:32.753Z,55.96
2017-04-21T07:47:13.356Z,56.15
2017-04-21T07:47:53.953Z,56.15
2017-04-21T07:48:34.571Z,55.77
2017-04-21T07:49:15.142Z,56.24
2017-04-21T07:49:55.710Z,56.53
2017-04-21T07:50:36.284Z,56.63
2017-04-21T07:51:16.868Z,56.72
2017-04-21T07:51:57.442Z,56.72
2017-04-21T07:52:38.035Z,56.63
2017-04-21T07:53:18.634Z,56.53
2017-04-21T07:53:59.224Z,56.82
2017-04-21T07:54:39.819Z,56.82
2017-04-21T07:55:20.547Z,56.44
2017-04-21T07:56:01.187Z,56.82
2017-04-21T07:56:41.775Z,56.92
2017-04-21T07:57:22.360Z,56.92
2017-04-21T07:58:02.981Z,56.82
2017-04-21T07:58:43.567Z,56.92
2017-04-21T07:59:24.179Z,56.92
2017-04-21T08:00:04.780Z,56.92
2017-04-21T08:00:45.389Z,56.63
2017-04-21T08:01:26.002Z,57.2
2017-04-21T08:02:06.599Z,57.48
2017-04-21T08:02:47.176Z,57.2
2017-04-21T08:03:27.776Z,57.29
2017-04-21T08:04:08.389Z,57.1
2017-04-21T08:04:48.928Z,56.92
2017-04-21T08:05:29.502Z,56.82
2017-04-21T08:06:10.108Z,57.01
2017-04-21T08:06:50.731Z,57.29
2017-04-21T08:07:31.342Z,57.48
2017-04-21T08:08:11.949Z,57.48
2017-04-21T08:08:52.510Z,57.58
2017-04-21T08:09:33.116Z,57.58
2017-04-21T08:10:13.724Z,57.67
2017-04-21T08:10:54.481Z,57.77
2017-04-21T08:11:34.947Z,57.77
2017-04-21T08:12:15.559Z,57.77
2017-04-21T08:12:56.210Z,58.15
2017-04-21T08:13:36.813Z,58.53
2017-04-21T08:14:17.403Z,58.25
2017-04-21T08:14:58.037Z,58.06
2017-04-21T08:15:38.647Z,58.53
2017-04-21T08:16:19.213Z,58.44
2017-04-21T08:16:59.806Z,58.34
2017-04-21T08:17:40.437Z,59.01
2017-04-21T08:18:21.006Z,58.81
2017-04-21T08:19:01.628Z,58.81
2017-04-21T08:19:42.232Z,59.01
2017-04-21T08:20:22.807Z,58.72
2017-04-21T08:21:03.404Z,59.39
2017-04-21T08:21:44.001Z,59.2
2017-04-21T08:22:24.589Z,59.1
2017-04-21T08:23:05.195Z,59.39
2017-04-21T08:23:45.819Z,59.39
2017-04-21T08:24:26.459Z,59.2
2017-04-21T08:25:07.053Z,59.2
2017-04-21T08:25:47.655Z,59.32
2017-04-21T08:26:28.209Z,59.42
2017-04-21T08:27:08.836Z,59.42
2017-04-21T08:27:49.413Z,59.32
2017-04-21T08:28:29.991Z,59.42
2017-04-21T08:29:10.560Z,59.32
2017-04-21T08:29:51.203Z,59.42
2017-04-21T08:30:31.810Z,59.32
2017-04-21T08:31:12.395Z,59.13
2017-04-21T08:31:52.983Z,59.42
2017-04-21T08:32:33.549Z,59.32
2017-04-21T08:33:14.142Z,59.13
2017-04-21T08:33:54.732Z,58.84
2017-04-21T08:34:35.297Z,58.84
2017-04-21T08:35:15.882Z,58.94
2017-04-21T08:35:56.510Z,59.32
2017-04-21T08:36:37.054Z,59.13
2017-04-21T08:37:17.691Z,59.51
2017-04-21T08:37:58.296Z,59.13
2017-04-21T08:38:38.889Z,59.23
2017-04-21T08:39:19.461Z,59.32
2017-04-21T08:40:00.111Z,59.32
2017-04-21T08:40:40.717Z,59.61
2017-04-21T08:41:21.284Z,59.61
2017-04-21T08:42:01.869Z,59.23
2017-04-21T08:42:42.468Z,59.32
2017-04-21T08:43:23.035Z,59.42
2017-04-21T08:44:03.639Z,59.51
2017-04-21T08:44:44.216Z,59.23
2017-04-21T08:45:24.830Z,59.42
2017-04-21T08:46:05.399Z,59.51
2017-04-21T08:46:45.977Z,59.42
2017-04-21T08:47:26.598Z,59.32
2017-04-21T08:48:07.250Z,59.13